createdAt,value
2019-04-26T00:02:02.609Z,12.13
2019-04-26T00:04:28.610Z,13.10
2019-04-26T00:06:54.805Z,12.73
2019-04-26T00:09:22.694Z,12.70
2019-04-26T00:11:59.151Z,12.47
2019-04-26T00:14:35.376Z,11.77
2019-04-26T00:17:03.074Z,12.90
2019-04-26T00:19:29.181Z,12.40
2019-04-26T00:21:55.281Z,13.93
2019-04-26T00:24:21.550Z,12.50
2019-04-26T00:26:47.287Z,12.17
2019-04-26T00:29:13.080Z,12.20
2019-04-26T00:31:38.865Z,13.23
2019-04-26T00:34:04.679Z,12.93
2019-04-26T00:36:30.475Z,13.33
2019-04-26T00:38:56.265Z,12.80
2019-04-26T00:41:22.702Z,13.13
2019-04-26T00:43:48.639Z,13.00
2019-04-26T00:46:15.134Z,14.10
2019-04-26T00:48:41.126Z,13.00
2019-04-26T00:51:07.425Z,14.67
2019-04-26T00:53:33.522Z,15.33
2019-04-26T00:56:00.001Z,16.67
2019-04-26T00:58:26.099Z,14.53
2019-04-26T01:00:51.879Z,14.63
2019-04-26T01:03:18.574Z,15.30
2019-04-26T01:05:44.465Z,14.60
2019-04-26T01:08:10.258Z,14.93
2019-04-26T01:10:36.051Z,14.70
2019-04-26T01:13:01.857Z,14.40
2019-04-26T01:15:27.632Z,14.27
2019-04-26T01:17:53.419Z,13.57
2019-04-26T01:20:20.690Z,13.73
2019-04-26T01:22:49.300Z,14.53
2019-04-26T01:25:34.044Z,13.17
2019-04-26T01:28:01.149Z,13.77
2019-04-26T01:30:28.831Z,13.17
2019-04-26T01:32:54.715Z,13.10
2019-04-26T01:35:20.598Z,13.70
2019-04-26T01:37:47.276Z,13.07
2019-04-26T01:40:15.067Z,11.90
2019-04-26T01:42:44.648Z,12.57
2019-04-26T01:45:20.265Z,13.43
2019-04-26T01:47:48.326Z,12.23
2019-04-26T01:50:14.315Z,12.57
2019-04-26T01:52:41.682Z,12.27
2019-04-26T01:55:08.473Z,11.67
2019-04-26T01:57:34.452Z,13.07
2019-04-26T02:00:02.141Z,12.30
2019-04-26T02:02:32.590Z,12.60
2019-04-26T02:05:00.283Z,11.53
2019-04-26T02:07:38.339Z,12.27
2019-04-26T02:10:09.507Z,13.17
2019-04-26T02:12:35.885Z,13.17
2019-04-26T02:15:03.076Z,14.00
2019-04-26T02:17:29.346Z,13.47
2019-04-26T02:19:55.138Z,13.00
2019-04-26T02:22:25.900Z,14.00
2019-04-26T02:24:52.296Z,14.80
2019-04-26T02:27:22.759Z,12.70
2019-04-26T02:29:48.556Z,13.90
2019-04-26T02:32:14.437Z,14.50
2019-04-26T02:34:40.226Z,13.67
2019-04-26T02:37:08.713Z,13.97
2019-04-26T02:39:37.797Z,14.60
2019-04-26T02:42:07.481Z,14.60
2019-04-26T02:44:38.440Z,14.77
2019-04-26T02:47:34.150Z,14.97
2019-04-26T02:50:05.152Z,15.20
2019-04-26T02:52:55.342Z,15.53
2019-04-26T02:55:38.847Z,15.67
2019-04-26T02:58:01.856Z,15.30
2019-04-26T03:00:28.127Z,16.47
2019-04-26T03:02:57.825Z,17.40
2019-04-26T03:05:24.420Z,15.90
2019-04-26T03:07:57.019Z,16.43
2019-04-26T03:10:26.600Z,15.83
2019-04-26T03:12:53.783Z,16.60
2019-04-26T03:15:34.154Z,17.53
2019-04-26T03:18:21.976Z,17.00
2019-04-26T03:20:51.681Z,18.40
2019-04-26T03:23:21.374Z,17.23
2019-04-26T03:26:22.552Z,17.13
2019-04-26T03:29:11.412Z,16.43
2019-04-26T03:31:53.945Z,17.57
2019-04-26T03:34:34.445Z,17.93
2019-04-26T03:37:22.108Z,17.93
2019-04-26T03:40:14.750Z,16.57
2019-04-26T03:43:01.993Z,17.90
2019-04-26T03:45:58.602Z,16.80
2019-04-26T03:48:37.941Z,18.63
2019-04-26T03:51:08.456Z,18.70
2019-04-26T03:53:47.139Z,19.40
2019-04-26T03:56:18.547Z,19.33
2019-04-26T03:59:16.803Z,20.03
2019-04-26T04:02:05.456Z,18.43
2019-04-26T04:04:41.064Z,20.77
2019-04-26T04:07:09.870Z,20.30
2019-04-26T04:09:41.045Z,21.27
2019-04-26T04:12:14.026Z,20.70
2019-04-26T04:14:52.478Z,21.00
2019-04-26T04:17:45.371Z,20.37
2019-04-26T04:20:33.708Z,21.17
2019-04-26T04:23:22.540Z,21.00
2019-04-26T04:25:49.848Z,21.33
2019-04-26T04:28:35.354Z,21.60
2019-04-26T04:31:10.667Z,22.90
2019-04-26T04:34:08.782Z,22.10
2019-04-26T04:36:42.348Z,23.80
2019-04-26T04:39:13.373Z,23.30
2019-04-26T04:41:56.363Z,22.77
2019-04-26T04:44:59.147Z,24.87
2019-04-26T04:47:34.742Z,24.53
2019-04-26T04:50:11.486Z,24.07
2019-04-26T04:53:06.901Z,27.27
2019-04-26T04:55:49.968Z,23.73
2019-04-26T04:58:22.201Z,26.17
2019-04-26T05:01:14.340Z,24.57
2019-04-26T05:03:55.557Z,23.87
2019-04-26T05:06:33.078Z,25.63
2019-04-26T05:09:11.163Z,25.83
2019-04-26T05:11:58.964Z,25.53
2019-04-26T05:14:28.559Z,25.43
2019-04-26T05:17:26.973Z,25.57
2019-04-26T05:20:02.603Z,27.17
2019-04-26T05:23:03.477Z,26.87
2019-04-26T05:25:50.183Z,26.43
2019-04-26T05:28:40.078Z,27.00
2019-04-26T05:31:17.620Z,26.67
2019-04-26T05:33:47.787Z,26.53
2019-04-26T05:36:30.540Z,26.50
2019-04-26T05:39:05.954Z,27.60
2019-04-26T05:41:58.197Z,26.33
2019-04-26T05:45:08.382Z,27.77
2019-04-26T05:48:08.226Z,25.63
2019-04-26T05:50:53.715Z,27.17
2019-04-26T05:53:44.635Z,27.53
2019-04-26T05:56:21.682Z,26.37
2019-04-26T05:59:09.614Z,26.20
2019-04-26T06:01:59.341Z,25.67
2019-04-26T06:05:07.250Z,26.17
2019-04-26T06:07:52.013Z,27.10
2019-04-26T06:10:21.399Z,27.80
2019-04-26T06:13:02.955Z,27.70
2019-04-26T06:15:40.451Z,26.40
2019-04-26T06:18:14.461Z,27.30
2019-04-26T06:20:43.566Z,27.03
2019-04-26T06:23:12.847Z,26.20
2019-04-26T06:26:05.198Z,26.37
2019-04-26T06:28:37.823Z,26.00
2019-04-26T06:31:23.857Z,25.23
2019-04-26T06:34:05.553Z,25.47
2019-04-26T06:36:36.547Z,25.97
2019-04-26T06:39:28.467Z,27.23
2019-04-26T06:42:09.642Z,25.50
2019-04-26T06:45:02.881Z,26.53
2019-04-26T06:47:46.391Z,26.37
2019-04-26T06:50:35.491Z,26.67
2019-04-26T06:53:20.193Z,26.23
2019-04-26T06:55:54.701Z,25.13
2019-04-26T06:58:35.748Z,26.50
2019-04-26T07:01:16.816Z,25.73
2019-04-26T07:03:55.187Z,25.53
2019-04-26T07:06:54.564Z,26.50
2019-04-26T07:09:26.319Z,26.33
2019-04-26T07:12:28.168Z,25.77
2019-04-26T07:15:12.449Z,26.40
2019-04-26T07:17:50.620Z,27.20
2019-04-26T07:20:34.478Z,26.80
2019-04-26T07:23:27.107Z,28.27
2019-04-26T07:26:14.282Z,27.30
2019-04-26T07:29:12.195Z,27.37
2019-04-26T07:32:07.379Z,28.17
2019-04-26T07:34:44.455Z,27.37
2019-04-26T07:37:28.530Z,25.37
2019-04-26T07:40:12.158Z,28.00
2019-04-26T07:43:20.078Z,25.67
2019-04-26T07:46:18.255Z,25.73
2019-04-26T07:49:08.083Z,25.10
2019-04-26T07:52:10.819Z,25.43
2019-04-26T07:54:52.097Z,25.90
2019-04-26T07:57:38.572Z,25.63
2019-04-26T08:00:13.021Z,27.03
2019-04-26T08:03:02.216Z,27.43
2019-04-26T08:05:45.042Z,24.70
2019-04-26T08:08:15.002Z,26.07
2019-04-26T08:10:44.629Z,24.83
2019-04-26T08:13:15.253Z,25.83
2019-04-26T08:15:54.106Z,24.50
2019-04-26T08:18:25.595Z,23.30
2019-04-26T08:20:53.612Z,25.60
2019-04-26T08:23:38.622Z,23.63
2019-04-26T08:25:54.596Z,21.70
2019-04-26T08:28:21.171Z,25.03
2019-04-26T08:30:49.057Z,24.03
2019-04-26T08:33:19.336Z,22.70
2019-04-26T08:35:48.986Z,22.87
2019-04-26T08:38:21.977Z,20.13
2019-04-26T08:40:42.289Z,23.90
2019-04-26T08:43:10.945Z,21.83
2019-04-26T08:46:03.210Z,21.20
2019-04-26T08:48:31.503Z,20.23
2019-04-26T08:51:00.994Z,21.73
2019-04-26T08:53:27.773Z,19.90
2019-04-26T08:55:53.966Z,20.57
2019-04-26T08:58:21.647Z,20.67
2019-04-26T09:00:50.848Z,20.90
2019-04-26T09:03:20.231Z,21.07
2019-04-26T09:06:03.599Z,19.60
2019-04-26T09:08:32.477Z,18.07
2019-04-26T09:10:59.861Z,17.50
2019-04-26T09:13:29.440Z,17.97
2019-04-26T09:16:06.792Z,16.20
2019-04-26T09:18:42.433Z,14.93
2019-04-26T09:21:00.389Z,14.17
2019-04-26T09:23:39.582Z,13.63
2019-04-26T09:26:03.747Z,13.20
2019-04-26T09:28:37.295Z,13.43
2019-04-26T09:31:10.908Z,12.73
2019-04-26T09:33:44.463Z,12.70
2019-04-26T09:36:10.452Z,11.43
2019-04-26T09:38:36.228Z,13.60
2019-04-26T09:41:02.518Z,12.43
2019-04-26T09:43:39.100Z,10.73
2019-04-26T09:46:22.934Z,12.13
2019-04-26T09:49:03.066Z,11.87
2019-04-26T09:51:30.098Z,12.00
2019-04-26T09:53:55.869Z,12.00
2019-04-26T09:56:21.664Z,7.60
2019-04-26T09:58:47.442Z,6.67
2019-04-26T10:01:13.327Z,9.30
2019-04-26T10:03:39.100Z,7.10
2019-04-26T10:06:04.892Z,8.70
2019-04-26T10:08:30.665Z,6.43
2019-04-26T10:10:56.455Z,6.03
2019-04-26T10:13:29.922Z,7.20
2019-04-26T10:15:58.059Z,6.80
2019-04-26T10:18:25.974Z,6.93
2019-04-26T10:20:51.902Z,6.33
2019-04-26T10:23:17.683Z,6.07
2019-04-26T10:25:47.342Z,5.77
2019-04-26T10:28:11.726Z,4.97
2019-04-26T10:30:42.408Z,5.50
2019-04-26T10:33:06.727Z,8.73
2019-04-26T10:35:32.500Z,5.37
2019-04-26T10:37:58.288Z,6.63
2019-04-26T10:40:34.981Z,6.23
2019-04-26T10:42:51.775Z,9.73
2019-04-26T10:45:19.050Z,6.77
2019-04-26T10:47:44.947Z,9.07
2019-04-26T10:50:11.019Z,7.13
2019-04-26T10:52:54.392Z,6.53
2019-04-26T10:55:22.359Z,9.23
2019-04-26T10:57:51.154Z,7.33
2019-04-26T11:00:24.679Z,4.67
2019-04-26T11:02:50.481Z,4.93
2019-04-26T11:05:18.533Z,6.20
2019-04-26T11:07:43.943Z,5.77
2019-04-26T11:10:09.921Z,5.30
2019-04-26T11:12:35.715Z,5.07
2019-04-26T11:15:01.592Z,6.23
2019-04-26T11:17:27.392Z,5.33
2019-04-26T11:19:53.160Z,8.77
2019-04-26T11:22:28.579Z,3.63
2019-04-26T11:24:50.074Z,8.37
2019-04-26T11:27:14.330Z,4.63
2019-04-26T11:29:40.126Z,6.07
2019-04-26T11:32:05.904Z,5.50
2019-04-26T11:34:31.726Z,4.70
2019-04-26T11:36:57.554Z,4.20
2019-04-26T11:39:23.386Z,5.00
2019-04-26T11:41:49.174Z,3.87
2019-04-26T11:44:14.993Z,6.27
2019-04-26T11:46:44.935Z,3.30
2019-04-26T11:49:08.503Z,3.77
2019-04-26T11:51:34.251Z,3.20
2019-04-26T11:54:00.043Z,4.90
2019-04-26T11:56:25.833Z,4.43
2019-04-26T11:58:52.497Z,4.43
2019-04-26T12:01:21.315Z,3.00
2019-04-26T12:03:51.546Z,5.50
2019-04-26T12:06:21.291Z,5.67
2019-04-26T12:08:50.936Z,4.70
2019-04-26T12:11:18.604Z,4.13
2019-04-26T12:13:44.423Z,4.37
2019-04-26T12:16:10.223Z,4.70
2019-04-26T12:18:36.014Z,6.83
2019-04-26T12:21:02.145Z,4.90
2019-04-26T12:23:28.021Z,6.23
2019-04-26T12:25:53.840Z,2.80
2019-04-26T12:28:19.627Z,5.40
2019-04-26T12:30:45.422Z,4.30
2019-04-26T12:33:11.245Z,3.43
2019-04-26T12:35:36.994Z,4.63
2019-04-26T12:38:02.771Z,5.20
2019-04-26T12:40:28.565Z,4.17
2019-04-26T12:42:54.353Z,5.20
2019-04-26T12:45:39.951Z,3.37
2019-04-26T12:48:16.825Z,4.43
2019-04-26T12:50:42.923Z,4.93
2019-04-26T12:53:08.702Z,4.33
2019-04-26T12:55:34.489Z,4.37
2019-04-26T12:58:00.273Z,2.83
2019-04-26T13:00:27.970Z,2.93
2019-04-26T13:02:54.308Z,3.70
2019-04-26T13:05:21.548Z,4.03
2019-04-26T13:07:49.237Z,3.80
2019-04-26T13:10:16.935Z,4.80
2019-04-26T13:12:53.443Z,6.27
2019-04-26T13:15:36.546Z,4.40
2019-04-26T13:18:02.337Z,3.17
2019-04-26T13:20:28.771Z,5.27
2019-04-26T13:22:55.998Z,2.80
2019-04-26T13:25:26.506Z,3.73
2019-04-26T13:27:49.504Z,4.33
2019-04-26T13:30:15.283Z,2.67
2019-04-26T13:32:41.079Z,4.83
2019-04-26T13:35:07.277Z,3.07
2019-04-26T13:37:35.710Z,2.97
2019-04-26T13:40:02.739Z,3.30
2019-04-26T13:42:28.537Z,3.17
2019-04-26T13:45:02.191Z,4.17
2019-04-26T13:47:38.571Z,4.30
2019-04-26T13:50:07.356Z,3.27
2019-04-26T13:52:33.157Z,3.63
2019-04-26T13:54:58.940Z,4.33
2019-04-26T13:57:24.720Z,4.03
2019-04-26T13:59:50.492Z,4.03
2019-04-26T14:02:16.488Z,6.47
2019-04-26T14:04:42.714Z,3.77
2019-04-26T14:07:08.568Z,3.43
2019-04-26T14:09:34.347Z,4.63
2019-04-26T14:12:03.352Z,3.53
2019-04-26T14:14:30.202Z,2.83
2019-04-26T14:16:55.727Z,3.60
2019-04-26T14:19:22.798Z,3.97
2019-04-26T14:21:48.611Z,2.97
2019-04-26T14:24:19.639Z,3.57
2019-04-26T14:26:48.663Z,6.57
2019-04-26T14:29:14.459Z,3.47
2019-04-26T14:31:40.351Z,3.07
2019-04-26T14:34:07.098Z,3.73
2019-04-26T14:36:32.941Z,6.57
2019-04-26T14:39:05.581Z,3.50
2019-04-26T14:41:26.595Z,4.83
2019-04-26T14:43:56.671Z,6.70
2019-04-26T14:46:22.827Z,4.87
2019-04-26T14:49:00.926Z,4.20
2019-04-26T14:51:16.888Z,4.53
2019-04-26T14:53:43.266Z,4.33
2019-04-26T14:56:09.042Z,5.20
2019-04-26T14:58:34.832Z,5.90
2019-04-26T15:01:05.065Z,5.00
2019-04-26T15:03:34.067Z,5.47
2019-04-26T15:06:20.535Z,5.43
2019-04-26T15:08:48.673Z,5.83
2019-04-26T15:11:13.519Z,6.07
2019-04-26T15:13:40.537Z,7.80
2019-04-26T15:16:10.338Z,6.30
2019-04-26T15:18:37.049Z,6.93
2019-04-26T15:21:04.229Z,7.00
2019-04-26T15:23:30.064Z,7.63
2019-04-26T15:25:58.402Z,7.83
2019-04-26T15:28:23.576Z,8.23
2019-04-26T15:30:49.358Z,7.10
2019-04-26T15:33:15.140Z,7.43
2019-04-26T15:35:42.173Z,6.87
2019-04-26T15:38:08.005Z,6.87
2019-04-26T15:40:38.550Z,7.33
2019-04-26T15:43:24.044Z,8.40
2019-04-26T15:46:08.098Z,7.63
2019-04-26T15:48:38.554Z,6.87
2019-04-26T15:51:04.431Z,6.00
2019-04-26T15:53:30.219Z,6.37
2019-04-26T15:55:56.007Z,7.53
2019-04-26T15:58:21.784Z,6.00
2019-04-26T16:00:47.580Z,6.77
2019-04-26T16:03:13.358Z,7.87
2019-04-26T16:05:39.464Z,7.57
2019-04-26T16:08:05.236Z,6.47
2019-04-26T16:10:37.078Z,7.47
2019-04-26T16:13:01.260Z,8.50
2019-04-26T16:15:26.401Z,8.10
2019-04-26T16:17:52.251Z,9.20
2019-04-26T16:20:18.035Z,8.50
2019-04-26T16:22:43.814Z,8.80
2019-04-26T16:25:09.616Z,8.83
2019-04-26T16:27:35.410Z,9.27
2019-04-26T16:30:04.830Z,9.57
2019-04-26T16:32:38.019Z,8.90
2019-04-26T16:35:05.200Z,8.73
2019-04-26T16:37:33.102Z,6.77
2019-04-26T16:39:58.694Z,6.93
2019-04-26T16:42:24.481Z,7.10
2019-04-26T16:44:50.255Z,7.87
2019-04-26T16:47:16.046Z,8.43
2019-04-26T16:49:44.161Z,8.63
2019-04-26T16:52:09.531Z,8.63
2019-04-26T16:54:35.312Z,8.20
2019-04-26T16:57:06.928Z,6.20
2019-04-26T16:59:28.778Z,6.40
2019-04-26T17:01:54.572Z,6.70
2019-04-26T17:04:28.762Z,6.07
2019-04-26T17:06:48.141Z,7.80
2019-04-26T17:09:14.478Z,7.17
2019-04-26T17:11:41.405Z,6.80
2019-04-26T17:14:10.135Z,6.80
2019-04-26T17:16:38.074Z,7.00
2019-04-26T17:19:03.208Z,6.27
2019-04-26T17:21:32.822Z,6.63
2019-04-26T17:24:16.970Z,5.90
2019-04-26T17:26:44.683Z,5.77
2019-04-26T17:29:10.462Z,6.20
2019-04-26T17:31:36.259Z,5.60
2019-04-26T17:34:03.522Z,5.57
2019-04-26T17:36:29.743Z,6.43
2019-04-26T17:38:55.535Z,6.00
2019-04-26T17:41:21.345Z,5.40
2019-04-26T17:43:50.614Z,5.13
2019-04-26T17:46:18.300Z,4.90
2019-04-26T17:48:44.818Z,5.10
2019-04-26T17:51:18.442Z,5.80
2019-04-26T17:53:38.000Z,5.27
2019-04-26T17:56:03.921Z,5.40
2019-04-26T17:58:32.456Z,5.93
2019-04-26T18:01:02.428Z,5.47
2019-04-26T18:03:25.253Z,6.40
2019-04-26T18:05:57.229Z,5.93
2019-04-26T18:08:36.211Z,6.33
2019-04-26T18:10:46.542Z,7.07
2019-04-26T18:13:16.229Z,7.53
2019-04-26T18:15:44.502Z,7.00
2019-04-26T18:18:26.052Z,7.33
2019-04-26T18:21:05.666Z,8.40
2019-04-26T18:23:31.470Z,9.67
2019-04-26T18:25:57.250Z,9.70
2019-04-26T18:28:23.069Z,10.50
2019-04-26T18:30:48.843Z,10.37
2019-04-26T18:33:17.485Z,11.53
2019-04-26T18:35:45.116Z,11.40
2019-04-26T18:38:12.606Z,14.80
2019-04-26T18:40:58.927Z,16.23
2019-04-26T18:43:05.383Z,17.13
2019-04-26T18:45:31.178Z,18.90
2019-04-26T18:48:01.483Z,21.10
2019-04-26T18:50:28.452Z,22.00
2019-04-26T18:53:03.370Z,25.80
2019-04-26T18:55:30.991Z,26.00
2019-04-26T18:58:01.450Z,28.80
2019-04-26T19:00:28.931Z,29.80
2019-04-26T19:02:55.414Z,30.10
2019-04-26T19:05:26.905Z,30.40
2019-04-26T19:07:50.219Z,31.97
2019-04-26T19:10:16.683Z,33.80
2019-04-26T19:12:43.987Z,34.70
2019-04-26T19:15:23.713Z,36.43
2019-04-26T19:18:07.772Z,36.60
2019-04-26T19:20:38.293Z,36.37
2019-04-26T19:23:06.195Z,37.40
2019-04-26T19:25:35.648Z,37.00
2019-04-26T19:28:04.447Z,39.30
2019-04-26T19:30:27.530Z,38.93
2019-04-26T19:32:53.901Z,41.43
2019-04-26T19:35:21.780Z,43.17
2019-04-26T19:37:47.660Z,42.27
2019-04-26T19:40:13.448Z,42.30
2019-04-26T19:42:39.222Z,44.73
2019-04-26T19:45:13.556Z,43.70
2019-04-26T19:47:39.495Z,45.07
2019-04-26T19:50:09.641Z,43.80
2019-04-26T19:52:39.551Z,46.73
2019-04-26T19:55:13.756Z,46.87
2019-04-26T19:57:42.610Z,44.90
2019-04-26T20:00:09.395Z,45.50
2019-04-26T20:02:38.937Z,46.30
2019-04-26T20:05:06.662Z,47.07
2019-04-26T20:07:33.162Z,47.60
2019-04-26T20:10:02.334Z,46.53
2019-04-26T20:12:29.526Z,47.43
2019-04-26T20:14:58.289Z,46.83
2019-04-26T20:17:23.476Z,48.83
2019-04-26T20:19:53.991Z,49.10
2019-04-26T20:22:22.172Z,46.90
2019-04-26T20:24:48.542Z,48.17
2019-04-26T20:27:14.102Z,48.17
2019-04-26T20:29:46.736Z,47.00
2019-04-26T20:32:24.767Z,45.80
2019-04-26T20:34:52.511Z,44.73
2019-04-26T20:37:22.864Z,44.60
2019-04-26T20:39:46.010Z,44.40
2019-04-26T20:42:12.125Z,44.07
2019-04-26T20:44:50.461Z,44.20
2019-04-26T20:47:07.647Z,42.63
2019-04-26T20:49:33.466Z,42.97
2019-04-26T20:51:59.361Z,43.53
2019-04-26T20:54:25.144Z,43.50
2019-04-26T20:56:55.398Z,43.97
2019-04-26T20:59:20.316Z,45.20
2019-04-26T21:01:46.740Z,43.57
2019-04-26T21:04:33.886Z,44.43
2019-04-26T21:06:40.408Z,45.37
2019-04-26T21:09:08.150Z,42.97
2019-04-26T21:11:37.198Z,43.00
2019-04-26T21:14:07.432Z,42.27
2019-04-26T21:16:29.352Z,41.20
2019-04-26T21:18:55.138Z,38.53
2019-04-26T21:21:21.744Z,39.10
2019-04-26T21:23:49.223Z,35.40
2019-04-26T21:26:33.080Z,36.97
2019-04-26T21:29:00.766Z,38.13
2019-04-26T21:31:36.288Z,36.03
2019-04-26T21:34:03.866Z,36.60
2019-04-26T21:36:40.813Z,36.20
2019-04-26T21:39:11.385Z,35.77
2019-04-26T21:41:40.436Z,35.43
2019-04-26T21:44:07.550Z,34.83
2019-04-26T21:46:34.457Z,37.87
2019-04-26T21:49:00.238Z,38.23
2019-04-26T21:51:26.045Z,41.10
2019-04-26T21:53:52.996Z,39.80
2019-04-26T21:56:18.938Z,37.10
2019-04-26T21:58:46.063Z,38.80
2019-04-26T22:01:16.709Z,41.00
2019-04-26T22:03:47.373Z,48.20
2019-04-26T22:06:09.297Z,59.33
2019-04-26T22:08:39.604Z,47.97
2019-04-26T22:11:05.399Z,49.60
2019-04-26T22:13:41.561Z,46.83
2019-04-26T22:16:37.206Z,63.20
2019-04-26T22:18:56.960Z,44.53
2019-04-26T22:21:28.830Z,56.97
2019-04-26T22:23:56.072Z,54.53
2019-04-26T22:26:23.583Z,85.07
2019-04-26T22:28:49.775Z,74.57
2019-04-26T22:31:15.558Z,53.63
2019-04-26T22:33:42.860Z,64.23
2019-04-26T22:36:09.050Z,70.90
2019-04-26T22:38:34.869Z,92.97
2019-04-26T22:41:00.748Z,69.77
2019-04-26T22:43:40.080Z,88.83
2019-04-26T22:46:18.575Z,63.20
2019-04-26T22:48:54.654Z,61.67
2019-04-26T22:51:16.393Z,81.90
2019-04-26T22:53:43.379Z,47.07
2019-04-26T22:56:09.279Z,54.53
2019-04-26T22:58:35.101Z,54.20
2019-04-26T23:01:03.528Z,41.87
2019-04-26T23:03:28.618Z,43.80
2019-04-26T23:05:55.068Z,43.90
2019-04-26T23:08:21.495Z,51.07
2019-04-26T23:10:49.190Z,43.27
2019-04-26T23:13:16.888Z,45.07
2019-04-26T23:15:53.559Z,46.00
2019-04-26T23:18:21.605Z,48.30
2019-04-26T23:20:57.801Z,43.10
2019-04-26T23:23:23.766Z,42.03
2019-04-26T23:25:49.543Z,45.73
2019-04-26T23:28:15.337Z,46.17
2019-04-26T23:30:42.526Z,49.20
2019-04-26T23:33:09.010Z,46.70
2019-04-26T23:35:37.513Z,64.53
2019-04-26T23:38:05.212Z,77.87
2019-04-26T23:40:30.415Z,83.07
2019-04-26T23:42:56.194Z,55.63
2019-04-26T23:45:23.118Z,60.57
2019-04-26T23:47:48.963Z,47.33
2019-04-26T23:50:14.774Z,52.97
2019-04-26T23:52:40.549Z,50.83
2019-04-26T23:55:08.797Z,60.40
2019-04-26T23:57:36.213Z,82.10
